Time;durP1;ratioP1;P1;durP2;ratioP2;P2;SDS_P1;SDS_P2;PMS_P1;PMS_P2;Temp;Humidity;BMP_temperature;BMP_pressure;BME280_temperature;BME280_humidity;BME280_pressure;Samples;Min_cycle;Max_cycle;Signal;HPM_P1;HPM_P2
2021/10/11 00:00:46;;;;;;;18.10;13.32;;;5.40;99.90;;;;;;5135100;28;20218;-80
2021/10/11 00:03:13;;;;;;;19.67;13.95;;;5.40;99.90;;;;;;5120204;28;20209;-80
2021/10/11 00:05:40;;;;;;;22.48;15.05;;;5.40;99.90;;;;;;5118090;28;20247;-80
2021/10/11 00:08:07;;;;;;;19.02;14.85;;;5.40;99.90;;;;;;5116268;28;20211;-81
2021/10/11 00:10:34;;;;;;;18.13;13.88;;;5.40;99.90;;;;;;5121745;28;20225;-80
2021/10/11 00:13:01;;;;;;;19.08;13.88;;;5.40;99.90;;;;;;5118849;28;20676;-80
2021/10/11 00:15:29;;;;;;;19.13;14.70;;;5.40;99.90;;;;;;5117352;28;20247;-81
2021/10/11 00:17:57;;;;;;;19.95;14.07;;;5.30;99.90;;;;;;5117554;28;20656;-81
2021/10/11 00:20:24;;;;;;;18.88;13.75;;;5.30;99.90;;;;;;5115856;27;20226;-79
2021/10/11 00:22:51;;;;;;;16.23;13.43;;;5.20;99.90;;;;;;5116983;28;20205;-80
2021/10/11 00:25:18;;;;;;;20.20;13.65;;;5.20;99.90;;;;;;5119566;28;20668;-79
2021/10/11 00:27:45;;;;;;;20.42;14.35;;;5.20;99.90;;;;;;5117177;28;20208;-79
2021/10/11 00:30:14;;;;;;;20.33;14.27;;;5.20;99.90;;;;;;5119256;28;20311;-79
2021/10/11 00:32:43;;;;;;;16.98;13.98;;;5.20;99.90;;;;;;5124115;28;20225;-79
2021/10/11 00:35:11;;;;;;;17.95;13.18;;;5.10;99.90;;;;;;5123968;28;20240;-79
2021/10/11 00:37:38;;;;;;;19.48;14.45;;;5.10;99.90;;;;;;5133045;28;20270;-78
2021/10/11 00:40:07;;;;;;;17.33;14.15;;;5.10;99.90;;;;;;5138077;28;20269;-79
2021/10/11 00:42:34;;;;;;;19.45;14.15;;;5.00;99.90;;;;;;5138382;28;20192;-79
2021/10/11 00:45:01;;;;;;;16.20;12.82;;;4.90;99.90;;;;;;5137813;28;20193;-79
2021/10/11 00:47:28;;;;;;;17.90;14.15;;;4.90;99.90;;;;;;5136791;28;20196;-80
2021/10/11 00:49:56;;;;;;;18.48;13.85;;;4.90;99.90;;;;;;5123965;28;20295;-79
2021/10/11 00:52:23;;;;;;;18.23;13.52;;;4.90;99.90;;;;;;5130159;28;20193;-80
2021/10/11 00:54:51;;;;;;;21.27;13.30;;;4.90;99.90;;;;;;5126481;28;20293;-79
2021/10/11 00:57:17;;;;;;;20.95;14.63;;;4.80;99.90;;;;;;5123233;28;20229;-79
2021/10/11 00:59:44;;;;;;;15.63;12.30;;;4.80;99.90;;;;;;5124552;28;20209;-80
2021/10/11 01:02:12;;;;;;;16.35;13.02;;;4.80;99.90;;;;;;5124580;28;20212;-79
2021/10/11 01:04:39;;;;;;;21.10;14.73;;;4.80;99.90;;;;;;5122121;28;20228;-79
2021/10/11 01:07:07;;;;;;;22.25;14.15;;;4.70;99.90;;;;;;5118619;28;20718;-79
2021/10/11 01:09:34;;;;;;;15.80;12.90;;;4.70;99.90;;;;;;5118333;28;20205;-80
2021/10/11 01:12:01;;;;;;;18.42;13.25;;;4.70;99.90;;;;;;5118382;28;20707;-79
2021/10/11 01:14:29;;;;;;;17.95;12.48;;;4.70;99.90;;;;;;5117932;28;20227;-79
2021/10/11 01:16:59;;;;;;;17.98;12.50;;;4.70;99.90;;;;;;5118996;28;20664;-80
2021/10/11 01:19:26;;;;;;;17.65;13.75;;;4.60;99.90;;;;;;5118945;28;20213;-79
2021/10/11 01:21:54;;;;;;;19.38;14.55;;;4.70;99.90;;;;;;5117773;28;20285;-79
2021/10/11 01:24:21;;;;;;;16.35;13.48;;;4.80;99.90;;;;;;5117359;28;20668;-79
2021/10/11 01:26:48;;;;;;;18.30;13.48;;;4.80;99.90;;;;;;5117327;28;20205;-80
2021/10/11 01:29:17;;;;;;;17.25;13.70;;;4.80;99.90;;;;;;5117735;28;20201;-79
2021/10/11 01:31:44;;;;;;;19.63;13.40;;;4.80;99.90;;;;;;5117080;28;20735;-79
2021/10/11 01:34:12;;;;;;;15.00;12.55;;;4.70;99.90;;;;;;5116141;28;20239;-78
2021/10/11 01:36:39;;;;;;;17.55;13.23;;;4.70;99.90;;;;;;5115954;27;20224;-77
2021/10/11 01:39:09;;;;;;;19.23;12.48;;;4.60;99.90;;;;;;5116768;28;20211;-78
2021/10/11 01:41:36;;;;;;;15.77;12.45;;;4.60;99.90;;;;;;5116219;28;20228;-78
2021/10/11 01:44:03;;;;;;;21.20;12.85;;;4.60;99.90;;;;;;5115750;28;20298;-77
2021/10/11 01:46:30;;;;;;;16.35;12.65;;;4.50;99.90;;;;;;5115999;28;20208;-78
2021/10/11 01:48:57;;;;;;;18.85;12.90;;;4.50;99.90;;;;;;5115278;28;20295;-78
2021/10/11 01:51:24;;;;;;;16.38;12.73;;;4.50;99.90;;;;;;5115371;28;20229;-78
2021/10/11 01:53:51;;;;;;;18.27;13.65;;;4.50;99.90;;;;;;5115636;28;20679;-78
2021/10/11 01:56:20;;;;;;;16.85;13.10;;;4.40;99.90;;;;;;5115124;28;20676;-78
2021/10/11 01:58:46;;;;;;;15.70;12.55;;;4.40;99.90;;;;;;5115233;28;20288;-79
2021/10/11 02:01:14;;;;;;;16.20;12.43;;;4.30;99.90;;;;;;5115815;28;20252;-77
2021/10/11 02:03:41;;;;;;;16.92;12.95;;;4.30;99.90;;;;;;5116074;27;20219;-78
2021/10/11 02:06:07;;;;;;;15.35;12.05;;;4.30;99.90;;;;;;5115843;28;20299;-77
2021/10/11 02:08:34;;;;;;;16.73;12.27;;;4.30;99.90;;;;;;5115793;27;20201;-77
2021/10/11 02:11:01;;;;;;;19.35;13.18;;;4.30;99.90;;;;;;5115249;28;20311;-78
2021/10/11 02:13:29;;;;;;;17.70;12.82;;;4.20;99.90;;;;;;5115404;28;20255;-78
2021/10/11 02:15:56;;;;;;;17.05;12.10;;;4.20;99.90;;;;;;5115163;28;20231;-79
2021/10/11 02:18:23;;;;;;;15.48;12.55;;;4.20;99.90;;;;;;5114942;28;20299;-79
2021/10/11 02:20:50;;;;;;;20.75;14.25;;;4.10;99.90;;;;;;5115090;28;20307;-79
2021/10/11 02:23:17;;;;;;;17.92;12.50;;;4.10;99.90;;;;;;5115324;28;20201;-78
2021/10/11 02:25:44;;;;;;;16.02;13.20;;;4.20;99.90;;;;;;5115203;28;20201;-78
2021/10/11 02:28:10;;;;;;;19.08;12.85;;;4.10;99.90;;;;;;5115439;28;20211;-78
2021/10/11 02:30:39;;;;;;;17.80;12.88;;;4.20;99.90;;;;;;5115429;28;20244;-78
2021/10/11 02:33:06;;;;;;;15.32;12.50;;;4.30;99.90;;;;;;5117342;28;20287;-78
2021/10/11 02:35:32;;;;;;;17.08;13.50;;;4.30;99.90;;;;;;5120322;28;20225;-78
2021/10/11 02:37:59;;;;;;;18.33;14.23;;;4.30;99.90;;;;;;5133660;28;20220;-78
2021/10/11 02:40:26;;;;;;;16.95;12.63;;;4.30;99.90;;;;;;5135315;28;20672;-78
2021/10/11 02:42:53;;;;;;;17.23;12.88;;;4.20;99.90;;;;;;5131378;28;20299;-78
2021/10/11 02:45:20;;;;;;;14.55;12.70;;;4.20;99.90;;;;;;5129506;28;20272;-78
2021/10/11 02:47:48;;;;;;;16.45;12.70;;;4.20;99.90;;;;;;5130316;28;20207;-78
2021/10/11 02:50:15;;;;;;;20.25;13.25;;;4.20;99.90;;;;;;5126053;28;20784;-79
2021/10/11 02:52:42;;;;;;;19.38;12.93;;;4.20;99.90;;;;;;5124707;28;20285;-78
2021/10/11 02:55:09;;;;;;;21.30;14.95;;;4.20;99.90;;;;;;5120684;28;20331;-79
2021/10/11 02:57:36;;;;;;;17.63;13.63;;;4.20;99.90;;;;;;5120380;28;20215;-78
2021/10/11 03:00:05;;;;;;;18.67;12.20;;;4.20;99.90;;;;;;5121210;28;20696;-78
2021/10/11 03:02:31;;;;;;;15.63;12.00;;;4.10;99.90;;;;;;5120609;28;20200;-78
2021/10/11 03:05:00;;;;;;;15.10;11.70;;;4.10;99.90;;;;;;5121593;28;20204;-77
2021/10/11 03:07:27;;;;;;;14.45;11.70;;;4.00;99.90;;;;;;5120156;28;20210;-78
2021/10/11 03:09:53;;;;;;;17.63;12.18;;;3.90;99.90;;;;;;5119515;28;20209;-78
2021/10/11 03:12:20;;;;;;;15.95;12.07;;;3.80;99.90;;;;;;5117880;28;20206;-78
2021/10/11 03:14:47;;;;;;;17.77;11.35;;;3.80;99.90;;;;;;5118723;28;20740;-79
2021/10/11 03:17:14;;;;;;;14.20;11.80;;;3.80;99.90;;;;;;5120837;28;20239;-78
2021/10/11 03:19:41;;;;;;;15.90;12.82;;;3.90;99.90;;;;;;5117676;28;20212;-78
2021/10/11 03:22:09;;;;;;;17.38;13.43;;;3.90;99.90;;;;;;5119425;28;20212;-79
2021/10/11 03:24:36;;;;;;;19.33;12.75;;;3.90;99.90;;;;;;5117949;28;20244;-79
2021/10/11 03:27:03;;;;;;;20.08;13.93;;;3.90;99.90;;;;;;5116153;28;20295;-79
2021/10/11 03:29:30;;;;;;;18.17;13.65;;;4.00;99.90;;;;;;5116290;28;20211;-78
2021/10/11 03:31:57;;;;;;;15.65;12.75;;;4.00;99.90;;;;;;5116320;28;20276;-77
2021/10/11 03:34:24;;;;;;;14.70;12.05;;;4.00;99.90;;;;;;5117240;28;20204;-79
2021/10/11 03:36:51;;;;;;;15.05;12.88;;;3.90;99.90;;;;;;5131265;28;20219;-79
2021/10/11 03:39:19;;;;;;;18.52;12.55;;;3.80;99.90;;;;;;5138261;28;20185;-78
2021/10/11 03:41:46;;;;;;;17.33;12.57;;;3.70;99.90;;;;;;5138104;28;20251;-78
2021/10/11 03:44:13;;;;;;;18.65;13.23;;;3.70;99.90;;;;;;5129903;28;20208;-78
2021/10/11 03:46:40;;;;;;;15.38;13.25;;;3.70;99.90;;;;;;5117068;28;20204;-78
2021/10/11 03:49:07;;;;;;;17.90;13.48;;;3.70;99.90;;;;;;5118576;28;20204;-80
2021/10/11 03:51:34;;;;;;;16.30;13.00;;;3.60;99.90;;;;;;5115872;28;20256;-79
2021/10/11 03:54:01;;;;;;;17.52;13.85;;;3.70;99.90;;;;;;5118765;28;20236;-78
2021/10/11 03:56:29;;;;;;;16.33;12.02;;;3.80;99.90;;;;;;5123006;28;20230;-79
2021/10/11 03:58:56;;;;;;;17.60;13.35;;;3.80;99.90;;;;;;5118009;28;20253;-78
2021/10/11 04:01:23;;;;;;;18.00;13.98;;;3.80;99.90;;;;;;5117212;28;20220;-77
2021/10/11 04:03:51;;;;;;;18.25;14.20;;;3.80;99.90;;;;;;5116704;28;20735;-77
2021/10/11 04:06:18;;;;;;;19.40;14.30;;;3.90;99.90;;;;;;5116018;28;20692;-78
2021/10/11 04:08:46;;;;;;;16.77;13.30;;;4.00;99.90;;;;;;5114844;28;20216;-78
2021/10/11 04:11:23;;;;;;;18.45;13.70;;;4.00;99.90;;;;;;5114949;27;20259;-78
2021/10/11 04:13:51;;;;;;;20.02;14.65;;;4.00;99.90;;;;;;5113733;28;20690;-78
2021/10/11 04:16:18;;;;;;;17.92;14.48;;;4.00;99.90;;;;;;5114324;28;20741;-77
2021/10/11 04:18:45;;;;;;;17.92;14.35;;;4.00;99.90;;;;;;5114382;28;20657;-78
2021/10/11 04:21:12;;;;;;;20.73;14.95;;;4.10;99.90;;;;;;5114132;28;20224;-78
2021/10/11 04:23:39;;;;;;;19.98;15.07;;;4.10;99.90;;;;;;5126212;28;20230;-78
2021/10/11 04:26:06;;;;;;;17.10;12.75;;;4.10;99.90;;;;;;5118444;28;20247;-79
2021/10/11 04:28:33;;;;;;;22.70;14.23;;;4.10;99.90;;;;;;5114533;28;20240;-79
2021/10/11 04:31:01;;;;;;;19.00;14.57;;;4.10;99.90;;;;;;5114944;28;20229;-78
2021/10/11 04:33:28;;;;;;;16.67;13.02;;;4.20;99.90;;;;;;5115898;28;20201;-78
2021/10/11 04:35:55;;;;;;;16.25;12.85;;;4.10;99.90;;;;;;5118361;28;20224;-78
2021/10/11 04:38:22;;;;;;;19.50;12.63;;;4.10;99.90;;;;;;5125039;28;20205;-77
2021/10/11 04:40:48;;;;;;;19.15;12.52;;;4.00;99.90;;;;;;5137290;27;20256;-78
2021/10/11 04:43:15;;;;;;;15.70;12.88;;;3.90;99.90;;;;;;5128446;28;20228;-78
2021/10/11 04:45:42;;;;;;;17.45;12.95;;;3.90;99.90;;;;;;5126544;28;20565;-78
2021/10/11 04:48:11;;;;;;;17.73;12.52;;;3.90;99.90;;;;;;5124364;28;20204;-78
2021/10/11 04:50:39;;;;;;;16.45;11.93;;;3.80;99.90;;;;;;5119934;28;20343;-77
2021/10/11 04:53:07;;;;;;;17.00;12.07;;;3.70;99.90;;;;;;5117987;28;20204;-78
2021/10/11 04:55:34;;;;;;;17.80;12.15;;;3.60;99.90;;;;;;5118643;28;20216;-78
2021/10/11 04:58:01;;;;;;;16.13;12.45;;;3.60;99.90;;;;;;5118435;28;20200;-78
2021/10/11 05:00:29;;;;;;;16.88;12.80;;;3.60;99.90;;;;;;5118337;28;20224;-78
2021/10/11 05:02:56;;;;;;;17.20;12.70;;;3.60;99.90;;;;;;5118516;28;20207;-77
2021/10/11 05:05:24;;;;;;;17.10;12.55;;;3.60;99.90;;;;;;5118888;28;20549;-78
2021/10/11 05:07:51;;;;;;;18.45;12.20;;;3.70;99.90;;;;;;5120422;28;20304;-78
2021/10/11 05:10:20;;;;;;;13.52;11.45;;;3.60;99.90;;;;;;5121697;28;20311;-78
2021/10/11 05:12:47;;;;;;;15.93;11.15;;;3.60;99.90;;;;;;5124610;28;20721;-79
2021/10/11 05:15:14;;;;;;;16.27;12.05;;;3.60;99.90;;;;;;5122659;28;20204;-78
2021/10/11 05:17:41;;;;;;;15.45;12.05;;;3.60;99.90;;;;;;5124957;28;20269;-78
2021/10/11 05:20:09;;;;;;;15.05;11.48;;;3.60;99.90;;;;;;5129063;28;20229;-79
2021/10/11 05:22:38;;;;;;;18.35;12.70;;;3.60;99.90;;;;;;5123695;28;20672;-79
2021/10/11 05:25:06;;;;;;;19.13;12.73;;;3.60;99.90;;;;;;5122514;28;20291;-78
2021/10/11 05:27:33;;;;;;;18.60;12.20;;;3.60;99.90;;;;;;5123734;28;20227;-79
2021/10/11 05:30:00;;;;;;;18.38;13.32;;;3.60;99.90;;;;;;5122952;28;20292;-79
2021/10/11 05:32:28;;;;;;;18.35;13.20;;;3.60;99.90;;;;;;5123582;27;20227;-77
2021/10/11 05:34:58;;;;;;;19.65;13.35;;;3.60;99.90;;;;;;5123764;28;20212;-80
2021/10/11 05:37:24;;;;;;;20.75;12.50;;;3.70;99.90;;;;;;5122087;28;20292;-78
2021/10/11 05:39:53;;;;;;;16.33;12.00;;;3.70;99.90;;;;;;5125184;28;20233;-80
2021/10/11 05:42:20;;;;;;;20.40;12.68;;;3.70;99.90;;;;;;5130838;28;20228;-78
2021/10/11 05:44:47;;;;;;;17.13;13.00;;;3.80;99.90;;;;;;5133094;28;20204;-78
2021/10/11 05:47:14;;;;;;;15.90;12.43;;;3.80;99.90;;;;;;5130937;28;20271;-78
2021/10/11 05:49:44;;;;;;;17.25;12.48;;;3.80;99.90;;;;;;5134229;28;20215;-78
2021/10/11 05:52:11;;;;;;;18.42;13.45;;;3.90;99.90;;;;;;5131619;28;20256;-79
2021/10/11 05:54:38;;;;;;;19.05;12.45;;;3.90;99.90;;;;;;5131989;28;20228;-77
2021/10/11 05:57:06;;;;;;;16.33;12.70;;;4.00;99.90;;;;;;5132024;28;20273;-79
2021/10/11 05:59:33;;;;;;;20.05;12.55;;;4.00;99.90;;;;;;5131483;28;20466;-81
2021/10/11 06:02:00;;;;;;;17.63;13.45;;;4.10;99.90;;;;;;5116313;28;20249;-78
2021/10/11 06:32:57;;;;;;;20.52;14.98;;;4.70;99.90;;;;;;5093118;28;20213;-80
2021/10/11 06:35:24;;;;;;;21.02;14.55;;;4.80;99.90;;;;;;5093263;28;20226;-79
2021/10/11 06:37:59;;;;;;;19.13;13.80;;;4.80;99.90;;;;;;5095050;28;20219;-79
2021/10/11 06:40:26;;;;;;;22.77;14.32;;;4.90;99.90;;;;;;5093719;28;20204;-80
2021/10/11 06:42:53;;;;;;;20.05;13.07;;;5.00;99.90;;;;;;5091697;28;20228;-80
2021/10/11 06:45:21;;;;;;;18.50;12.77;;;5.10;99.90;;;;;;5090312;28;20222;-79
2021/10/11 06:47:48;;;;;;;18.05;13.50;;;5.10;99.90;;;;;;5090632;28;20207;-81
2021/10/11 06:50:19;;;;;;;15.68;12.90;;;5.20;99.90;;;;;;5091335;28;20258;-80
2021/10/11 06:52:55;;;;;;;17.35;13.50;;;5.30;99.90;;;;;;5088890;28;20267;-80
2021/10/11 07:08:59;;;;;;;16.13;11.27;;;5.70;98.90;;;;;;4948549;28;20210;-79
2021/10/11 07:11:30;;;;;;;16.42;11.82;;;5.80;98.20;;;;;;4962324;28;20293;-79
2021/10/11 07:16:46;;;;;;;13.88;11.45;;;6.00;96.30;;;;;;4974180;28;20235;-79
2021/10/11 07:19:13;;;;;;;17.02;11.75;;;6.10;95.40;;;;;;4978371;28;20211;-79
2021/10/11 07:21:42;;;;;;;17.88;10.95;;;6.30;94.40;;;;;;4978033;28;20256;-79
2021/10/11 07:24:11;;;;;;;15.40;12.32;;;6.40;93.90;;;;;;4977474;28;20242;-79
2021/10/11 07:26:39;;;;;;;12.45;10.38;;;6.70;92.90;;;;;;4977325;28;20210;-80
2021/10/11 07:29:07;;;;;;;17.98;11.95;;;6.90;91.70;;;;;;4979512;28;20203;-79
2021/10/11 07:31:35;;;;;;;24.55;11.73;;;7.00;90.20;;;;;;4976899;28;20223;-78
2021/10/11 07:34:02;;;;;;;17.88;11.45;;;7.00;88.10;;;;;;4986739;28;20242;-80
2021/10/11 07:36:29;;;;;;;20.20;11.52;;;7.10;86.60;;;;;;4990898;28;20215;-79
2021/10/11 09:18:00;;;;;;;28.30;19.83;;;10.60;71.60;;;;;;4931617;29;20254;-79
2021/10/11 09:20:29;;;;;;;22.08;17.23;;;10.60;70.90;;;;;;4912181;29;20216;-79
2021/10/11 09:22:58;;;;;;;21.85;17.88;;;10.70;70.20;;;;;;4915679;29;20220;-79
2021/10/11 10:31:48;;;;;;;24.08;16.98;;;12.80;55.20;;;;;;5099563;22;20247;-78
2021/10/11 10:34:18;;;;;;;21.70;17.17;;;12.90;56.00;;;;;;5077119;28;20212;-79
2021/10/11 10:36:46;;;;;;;19.42;16.42;;;12.90;55.70;;;;;;5078544;28;20215;-79
2021/10/11 10:39:15;;;;;;;19.02;15.95;;;13.10;56.00;;;;;;5075069;28;20642;-78
2021/10/11 10:41:44;;;;;;;20.85;16.38;;;13.30;55.40;;;;;;5060153;28;20225;-78
2021/10/11 10:44:14;;;;;;;23.63;17.10;;;13.60;54.50;;;;;;5059385;28;20268;-79
2021/10/11 10:46:55;;;;;;;22.95;15.82;;;13.80;52.80;;;;;;5057001;28;20235;-78
2021/10/11 10:49:34;;;;;;;17.90;16.00;;;13.90;52.90;;;;;;5056129;28;20282;-78
2021/10/11 10:52:02;;;;;;;21.85;15.90;;;14.00;52.50;;;;;;5054377;28;20653;-78
2021/10/11 10:54:45;;;;;;;30.25;16.70;;;14.20;52.10;;;;;;5058207;28;20198;-78
2021/10/11 10:57:14;;;;;;;21.25;15.63;;;14.50;51.50;;;;;;5059582;28;20308;-78
2021/10/11 10:59:49;;;;;;;18.20;16.27;;;14.70;50.40;;;;;;5056229;28;20562;-79
2021/10/11 11:02:16;;;;;;;21.73;16.70;;;14.70;48.90;;;;;;5044815;28;20205;-79
2021/10/11 11:04:55;;;;;;;19.80;15.75;;;14.70;48.30;;;;;;5036655;28;20388;-78
2021/10/11 11:07:27;;;;;;;18.67;15.45;;;14.80;48.20;;;;;;5051551;28;20194;-79
2021/10/11 11:09:54;;;;;;;20.60;16.58;;;15.10;47.30;;;;;;5057752;28;20313;-79
2021/10/11 11:12:30;;;;;;;21.80;16.65;;;15.00;45.90;;;;;;5057681;28;20281;-78
2021/10/11 11:14:57;;;;;;;21.30;16.67;;;14.70;47.70;;;;;;5057174;28;20293;-79
2021/10/11 11:17:29;;;;;;;21.23;17.60;;;14.70;47.90;;;;;;5058545;28;20276;-79
2021/10/11 11:19:57;;;;;;;21.80;16.83;;;14.60;48.50;;;;;;5056291;28;20468;-79
2021/10/11 11:22:31;;;;;;;22.30;17.00;;;14.60;49.40;;;;;;5055307;28;20283;-80
2021/10/11 11:25:02;;;;;;;19.17;16.85;;;14.70;48.80;;;;;;5056127;28;20205;-79
2021/10/11 11:27:30;;;;;;;20.85;16.30;;;14.90;48.40;;;;;;5058920;28;20654;-78
2021/10/11 11:29:57;;;;;;;19.80;16.70;;;15.00;48.90;;;;;;5055621;28;20238;-78
2021/10/11 11:32:24;;;;;;;20.88;17.67;;;15.00;47.90;;;;;;5056611;28;20222;-78
2021/10/11 11:34:52;;;;;;;26.52;18.27;;;14.80;48.50;;;;;;5055496;28;20261;-79
2021/10/11 11:37:20;;;;;;;19.98;17.50;;;14.80;48.20;;;;;;5053605;28;20268;-80
2021/10/11 11:39:47;;;;;;;27.00;16.98;;;14.80;48.50;;;;;;5056924;28;20261;-80
2021/10/11 11:42:14;;;;;;;25.83;16.90;;;14.80;48.70;;;;;;5061685;28;20265;-81
2021/10/11 11:44:41;;;;;;;22.60;18.03;;;15.20;47.80;;;;;;5068763;28;20207;-79
2021/10/11 11:47:10;;;;;;;22.10;16.27;;;15.60;46.70;;;;;;5060333;28;20528;-79
2021/10/11 11:49:42;;;;;;;23.57;16.80;;;15.70;46.40;;;;;;5066826;28;20448;-79
2021/10/11 11:52:14;;;;;;;22.83;17.93;;;15.80;44.90;;;;;;5067848;28;20438;-79
2021/10/11 11:54:54;;;;;;;19.90;17.80;;;15.90;45.00;;;;;;5068519;28;20503;-77
2021/10/11 11:57:21;;;;;;;21.63;16.77;;;15.80;44.90;;;;;;5068291;28;20503;-78
2021/10/11 11:59:50;;;;;;;21.17;17.30;;;15.70;44.80;;;;;;5071514;28;20535;-79
2021/10/11 12:02:18;;;;;;;21.67;17.00;;;15.70;44.80;;;;;;5081098;28;20456;-78
2021/10/11 12:04:46;;;;;;;24.70;18.53;;;15.50;46.00;;;;;;5084438;28;20449;-78
2021/10/11 12:07:14;;;;;;;28.30;17.90;;;15.40;47.00;;;;;;5074331;28;20471;-82
2021/10/11 12:09:46;;;;;;;21.77;18.37;;;15.40;47.20;;;;;;5065009;28;20461;-79
2021/10/11 12:12:13;;;;;;;32.23;18.93;;;15.40;48.20;;;;;;5062197;28;21066;-79
2021/10/11 12:14:41;;;;;;;22.40;18.25;;;15.40;47.90;;;;;;5065527;28;20438;-79
2021/10/11 12:17:08;;;;;;;22.90;17.87;;;15.40;48.20;;;;;;5059258;28;20222;-75
2021/10/11 12:19:37;;;;;;;25.30;19.63;;;15.30;48.40;;;;;;5053968;28;20455;-77
2021/10/11 12:22:05;;;;;;;24.80;18.33;;;15.20;48.40;;;;;;5053320;28;20457;-76
2021/10/11 12:24:33;;;;;;;24.63;19.73;;;14.90;49.00;;;;;;5054888;28;20453;-77
2021/10/11 12:27:04;;;;;;;29.33;21.02;;;14.80;49.00;;;;;;5053910;28;20449;-77
2021/10/11 12:29:33;;;;;;;26.20;19.55;;;14.70;49.60;;;;;;5054267;28;20198;-77
2021/10/11 12:32:01;;;;;;;25.58;18.88;;;14.60;50.40;;;;;;5058095;28;20256;-77
2021/10/11 12:34:30;;;;;;;29.33;19.77;;;14.50;51.30;;;;;;5034616;28;20277;-77
2021/10/11 12:36:58;;;;;;;44.58;20.90;;;14.60;50.30;;;;;;5056866;28;20285;-77
2021/10/11 12:39:34;;;;;;;29.75;19.98;;;14.50;50.30;;;;;;5074748;28;20202;-77
2021/10/11 12:42:09;;;;;;;26.52;20.23;;;14.50;50.10;;;;;;5059588;28;20229;-77
2021/10/11 12:44:44;;;;;;;26.65;19.48;;;14.50;49.90;;;;;;5055748;28;20310;-77
2021/10/11 12:47:22;;;;;;;28.38;20.92;;;14.50;49.80;;;;;;5067287;28;20204;-77
2021/10/11 12:49:53;;;;;;;24.15;19.15;;;14.50;50.00;;;;;;5067860;28;20234;-76
2021/10/11 12:52:20;;;;;;;28.08;20.35;;;14.50;50.60;;;;;;5055838;28;20261;-77
2021/10/11 12:54:47;;;;;;;30.90;20.30;;;14.50;50.00;;;;;;5056823;28;20284;-78
2021/10/11 12:57:15;;;;;;;27.17;19.23;;;14.30;50.60;;;;;;5070071;28;20487;-78
2021/10/11 12:59:43;;;;;;;26.73;21.92;;;14.20;51.50;;;;;;5082568;28;20682;-78
2021/10/11 13:02:10;;;;;;;27.50;21.40;;;14.00;51.00;;;;;;5056608;28;20228;-77
2021/10/11 13:04:37;;;;;;;26.50;20.15;;;13.90;51.60;;;;;;5062426;28;20662;-76
2021/10/11 13:07:04;;;;;;;25.27;19.80;;;13.80;52.80;;;;;;5056756;28;20233;-76
2021/10/11 13:09:31;;;;;;;29.50;21.40;;;13.70;52.70;;;;;;5058440;28;20209;-77
2021/10/11 13:11:57;;;;;;;32.28;22.02;;;13.80;52.80;;;;;;5063586;28;20245;-77
2021/10/11 13:14:25;;;;;;;32.30;21.83;;;13.70;52.70;;;;;;5052822;28;20198;-77
2021/10/11 13:16:52;;;;;;;31.58;21.75;;;13.80;53.80;;;;;;5077298;28;20631;-76
2021/10/11 13:19:19;;;;;;;36.63;22.77;;;13.80;54.30;;;;;;5052916;28;20248;-76
2021/10/11 13:21:47;;;;;;;28.98;22.05;;;13.80;54.10;;;;;;5063253;28;20246;-77
2021/10/11 13:24:14;;;;;;;31.30;21.90;;;13.80;55.30;;;;;;5058581;28;20294;-77
2021/10/11 13:26:42;;;;;;;29.00;23.02;;;13.90;54.20;;;;;;5058696;28;20266;-78
2021/10/11 13:29:22;;;;;;;31.85;22.75;;;13.90;53.60;;;;;;5055610;28;20201;-77
2021/10/11 14:27:42;;;;;;;25.48;19.83;;;14.30;56.90;;;;;;5054965;28;20194;-77
2021/10/11 14:33:02;;;;;;;26.43;20.40;;;14.40;55.90;;;;;;5052374;28;20198;-78
2021/10/11 15:58:30;;;;;;;30.30;21.92;;;13.40;63.70;;;;;;5063807;28;20702;-78
2021/10/11 16:01:03;;;;;;;32.17;21.48;;;13.30;64.40;;;;;;5044359;28;20249;-79
2021/10/11 16:03:50;;;;;;;33.72;22.98;;;13.20;65.10;;;;;;5056999;28;20221;-78
2021/10/11 16:06:19;;;;;;;36.08;24.48;;;13.20;65.00;;;;;;5068172;28;20276;-78
2021/10/11 16:08:50;;;;;;;35.03;23.70;;;13.10;64.80;;;;;;5073404;28;20194;-77
2021/10/11 16:11:17;;;;;;;29.08;23.23;;;13.10;65.20;;;;;;5073329;28;20228;-78
2021/10/11 16:13:44;;;;;;;29.25;22.65;;;13.10;65.30;;;;;;5070119;28;20229;-78
2021/10/11 16:16:13;;;;;;;35.47;23.77;;;13.10;65.00;;;;;;5068697;28;20215;-79
2021/10/11 16:18:40;;;;;;;33.78;23.05;;;13.00;65.10;;;;;;5063993;28;20360;-79
2021/10/11 16:21:09;;;;;;;33.67;23.48;;;12.90;65.70;;;;;;5058435;28;20254;-80
2021/10/11 16:23:37;;;;;;;31.02;23.15;;;12.90;65.80;;;;;;5068122;28;20236;-78
2021/10/11 16:26:04;;;;;;;31.65;24.15;;;12.90;66.40;;;;;;5051988;28;20213;-78
2021/10/11 16:28:33;;;;;;;32.15;23.27;;;12.90;65.80;;;;;;5059579;28;20229;-78
2021/10/11 16:31:00;;;;;;;30.30;23.05;;;12.90;65.80;;;;;;5066783;28;20273;-78
2021/10/11 16:33:29;;;;;;;29.25;23.02;;;12.90;65.80;;;;;;5081323;28;20216;-77
2021/10/11 16:35:56;;;;;;;33.38;25.17;;;12.80;65.90;;;;;;5068403;28;20199;-78
2021/10/11 16:38:23;;;;;;;36.13;23.80;;;12.80;66.20;;;;;;5074993;28;20320;-78
2021/10/11 16:40:50;;;;;;;31.30;23.35;;;12.70;66.20;;;;;;5089403;28;20244;-78
2021/10/11 16:43:17;;;;;;;29.27;23.70;;;12.80;66.40;;;;;;5067842;28;20233;-78
2021/10/11 16:45:44;;;;;;;33.63;23.92;;;12.80;66.60;;;;;;5072749;28;20224;-79
2021/10/11 16:48:11;;;;;;;34.42;25.80;;;12.70;66.80;;;;;;5075391;28;20207;-79
2021/10/11 16:50:40;;;;;;;33.38;23.65;;;12.70;67.00;;;;;;5076521;28;20253;-79
2021/10/11 16:53:06;;;;;;;37.22;24.58;;;12.70;67.20;;;;;;5077954;28;20213;-79
2021/10/11 16:55:33;;;;;;;33.40;24.25;;;12.60;67.50;;;;;;5066649;28;20198;-79
2021/10/11 16:58:01;;;;;;;32.63;23.23;;;12.50;68.00;;;;;;5059375;28;20271;-79
2021/10/11 17:00:28;;;;;;;33.13;24.13;;;12.60;68.90;;;;;;5073952;28;20305;-80
2021/10/11 17:02:55;;;;;;;29.80;23.15;;;12.50;68.20;;;;;;5056041;28;20207;-80
2021/10/11 17:05:22;;;;;;;30.33;23.10;;;12.50;68.40;;;;;;5056272;28;20206;-80
2021/10/11 17:07:52;;;;;;;33.80;23.85;;;12.50;68.90;;;;;;5076360;28;20233;-79
2021/10/11 17:10:20;;;;;;;32.08;24.15;;;12.50;69.30;;;;;;5074109;28;20243;-80
2021/10/11 17:12:48;;;;;;;36.40;23.83;;;12.40;69.40;;;;;;5074356;28;20248;-80
2021/10/11 17:15:15;;;;;;;37.03;23.40;;;12.40;69.80;;;;;;5070342;28;20213;-80
2021/10/11 17:17:47;;;;;;;33.42;24.15;;;12.30;69.70;;;;;;5074505;28;20203;-80
2021/10/11 17:20:18;;;;;;;36.03;25.85;;;12.30;70.30;;;;;;5057487;28;20245;-81
2021/10/11 17:22:45;;;;;;;36.30;27.02;;;12.40;69.80;;;;;;5056529;28;20205;-83
2021/10/11 17:25:15;;;;;;;31.13;25.10;;;12.30;70.60;;;;;;5063047;28;20198;-80
2021/10/11 17:27:42;;;;;;;32.92;25.05;;;12.30;70.90;;;;;;5071711;28;20212;-80
2021/10/11 17:30:12;;;;;;;30.55;25.20;;;12.30;71.70;;;;;;5069190;28;20278;-81
2021/10/11 17:32:43;;;;;;;32.45;25.15;;;12.20;72.10;;;;;;5073831;28;20208;-80
2021/10/11 17:35:10;;;;;;;32.95;25.08;;;12.20;72.60;;;;;;5076362;28;20224;-80
2021/10/11 17:37:37;;;;;;;31.05;24.65;;;12.20;72.80;;;;;;5077080;28;20272;-80
2021/10/11 17:40:05;;;;;;;31.75;25.00;;;12.20;72.50;;;;;;5074932;28;20236;-80
2021/10/11 17:42:34;;;;;;;30.85;24.30;;;12.20;72.80;;;;;;5060038;28;20208;-80
2021/10/11 17:45:01;;;;;;;32.05;24.40;;;12.20;72.70;;;;;;5049996;28;20217;-80
2021/10/11 17:47:28;;;;;;;32.70;24.88;;;12.20;72.90;;;;;;5047308;28;20206;-80
2021/10/11 17:49:56;;;;;;;33.20;24.38;;;12.20;72.70;;;;;;5047739;28;20709;-81
2021/10/11 17:52:24;;;;;;;28.80;23.40;;;12.20;72.80;;;;;;5054180;28;20214;-80
2021/10/11 17:54:51;;;;;;;33.05;22.65;;;12.20;72.90;;;;;;5055378;28;20227;-79
2021/10/11 17:57:21;;;;;;;31.58;23.90;;;12.20;73.20;;;;;;5059956;28;20268;-81
2021/10/11 17:59:49;;;;;;;37.45;25.52;;;12.10;73.60;;;;;;5068034;28;20267;-79
2021/10/11 18:02:16;;;;;;;32.70;25.38;;;12.10;74.20;;;;;;5070322;28;20267;-80
2021/10/11 18:04:43;;;;;;;34.88;26.20;;;12.10;74.60;;;;;;5067544;28;20291;-80
2021/10/11 18:07:10;;;;;;;37.80;26.65;;;12.00;75.00;;;;;;5065666;28;20279;-80
2021/10/11 18:09:37;;;;;;;34.45;25.63;;;12.00;75.40;;;;;;5064015;28;20240;-81
2021/10/11 18:12:04;;;;;;;39.00;27.23;;;12.00;75.80;;;;;;5062548;28;20212;-79
2021/10/11 18:14:31;;;;;;;33.70;24.95;;;12.00;75.90;;;;;;5063120;28;20209;-80
2021/10/11 18:16:59;;;;;;;35.10;24.25;;;12.00;76.50;;;;;;5062802;28;20301;-80
2021/10/11 18:19:26;;;;;;;37.85;25.95;;;12.00;76.40;;;;;;5064722;28;20232;-79
2021/10/11 18:21:53;;;;;;;37.60;26.80;;;12.00;76.20;;;;;;5068882;28;20225;-80
2021/10/11 18:24:20;;;;;;;34.15;25.80;;;11.90;76.60;;;;;;5072491;28;20238;-79
2021/10/11 18:26:47;;;;;;;37.53;25.63;;;11.90;76.80;;;;;;5071570;28;20204;-80
2021/10/11 18:29:14;;;;;;;37.90;27.02;;;11.90;77.30;;;;;;5053047;28;20204;-79